createdAt,value
2018-06-13T00:00:45.564Z,15.80
2018-06-13T00:05:36.510Z,15.80
2018-06-13T00:10:27.473Z,15.80
2018-06-13T00:15:19.150Z,15.80
2018-06-13T00:20:10.080Z,15.70
2018-06-13T00:25:01.000Z,15.80
2018-06-13T00:29:51.946Z,15.70
2018-06-13T00:34:43.595Z,15.70
2018-06-13T00:39:35.257Z,15.70
2018-06-13T00:44:26.205Z,15.70
2018-06-13T00:49:17.157Z,15.70
2018-06-13T00:54:08.840Z,15.60
2018-06-13T00:58:59.779Z,15.60
2018-06-13T01:03:50.718Z,15.60
2018-06-13T01:08:41.670Z,15.50
2018-06-13T01:13:32.646Z,15.50
2018-06-13T01:18:24.368Z,15.50
2018-06-13T01:23:15.337Z,15.40
2018-06-13T01:28:07.044Z,15.40
2018-06-13T01:32:58.990Z,15.40
2018-06-13T01:37:49.903Z,15.40
2018-06-13T01:42:40.833Z,15.40
2018-06-13T01:47:31.771Z,15.30
2018-06-13T01:52:23.440Z,15.30
2018-06-13T01:57:14.356Z,15.30
2018-06-13T02:02:05.288Z,15.30
2018-06-13T02:06:56.209Z,15.20
2018-06-13T02:11:47.158Z,15.20
2018-06-13T02:16:39.572Z,15.20
2018-06-13T02:21:30.501Z,15.20
2018-06-13T02:26:21.462Z,15.20
2018-06-13T02:31:12.380Z,15.10
2018-06-13T02:36:03.321Z,15.10
2018-06-13T02:40:55.000Z,15.10
2018-06-13T02:45:45.925Z,15.10
2018-06-13T02:50:36.862Z,15.10
2018-06-13T02:55:29.282Z,15.00
2018-06-13T03:00:20.215Z,15.00
2018-06-13T03:05:11.152Z,15.00
2018-06-13T03:10:02.088Z,15.00
2018-06-13T03:14:53.765Z,15.00
2018-06-13T03:19:44.716Z,15.00
2018-06-13T03:24:35.653Z,15.00
2018-06-13T03:29:26.590Z,15.00
2018-06-13T03:34:18.264Z,15.00
2018-06-13T03:39:09.224Z,15.00
2018-06-13T03:44:00.892Z,15.00
2018-06-13T03:48:52.563Z,15.00
2018-06-13T03:53:43.508Z,14.90
2018-06-13T03:58:34.429Z,14.90
2018-06-13T04:03:25.376Z,15.00
2018-06-13T04:08:17.039Z,15.00
2018-06-13T04:13:07.953Z,15.00
2018-06-13T04:17:58.855Z,15.10
2018-06-13T04:22:50.483Z,15.00
2018-06-13T04:27:42.127Z,15.00
2018-06-13T04:32:33.050Z,15.00
2018-06-13T04:37:23.959Z,15.10
2018-06-13T04:42:15.609Z,15.10
2018-06-13T04:47:06.499Z,15.10
2018-06-13T04:51:57.403Z,15.10
2018-06-13T04:56:48.320Z,15.10
2018-06-13T05:01:39.224Z,15.10
2018-06-13T05:06:30.141Z,15.20
2018-06-13T05:11:21.053Z,15.20
2018-06-13T05:16:11.953Z,15.20
2018-06-13T05:21:02.860Z,15.20
2018-06-13T05:25:53.756Z,15.20
2018-06-13T05:30:44.675Z,15.20
2018-06-13T05:35:36.313Z,15.30
2018-06-13T05:40:29.146Z,15.30
2018-06-13T05:45:20.054Z,15.30
2018-06-13T05:50:10.972Z,15.40
2018-06-13T05:55:01.973Z,15.40
2018-06-13T05:59:52.797Z,15.40
2018-06-13T06:04:43.708Z,15.40
2018-06-13T06:09:34.612Z,15.40
2018-06-13T06:14:25.537Z,15.50
2018-06-13T06:19:16.433Z,15.50
2018-06-13T06:24:07.324Z,15.60
2018-06-13T06:28:58.221Z,15.70
2018-06-13T06:33:49.116Z,15.70
2018-06-13T06:38:40.049Z,15.80
2018-06-13T06:43:30.949Z,15.90
2018-06-13T06:48:21.854Z,16.00
2018-06-13T06:53:12.769Z,16.10
2018-06-13T06:58:03.675Z,16.20
2018-06-13T07:02:55.342Z,16.50
2018-06-13T07:07:46.235Z,16.50
2018-06-13T07:12:37.128Z,16.70
2018-06-13T07:17:28.008Z,16.90
2018-06-13T07:22:18.888Z,17.10
2018-06-13T07:27:09.776Z,17.30
2018-06-13T07:32:00.671Z,17.40
2018-06-13T07:36:51.589Z,17.50
2018-06-13T07:41:42.500Z,17.70
2018-06-13T07:46:33.402Z,17.80
2018-06-13T07:51:24.301Z,17.90
2018-06-13T07:56:15.188Z,18.00
2018-06-13T08:01:06.072Z,18.10
2018-06-13T08:05:56.972Z,18.20
2018-06-13T08:10:47.872Z,18.40
2018-06-13T08:15:38.763Z,18.50
2018-06-13T08:20:29.672Z,18.50
2018-06-13T08:25:20.577Z,18.60
2018-06-13T08:30:11.477Z,18.60
2018-06-13T08:35:02.365Z,18.70
2018-06-13T08:39:53.294Z,18.70
2018-06-13T08:44:44.185Z,18.80
2018-06-13T08:49:35.825Z,18.90
2018-06-13T08:54:26.724Z,18.80
2018-06-13T08:59:18.368Z,18.90
2018-06-13T09:04:10.011Z,18.90
2018-06-13T09:09:01.687Z,19.00
2018-06-13T09:13:52.552Z,19.00
2018-06-13T09:18:44.179Z,19.10
2018-06-13T09:23:35.861Z,19.10
2018-06-13T09:28:26.751Z,19.10
2018-06-13T09:33:18.379Z,19.20
2018-06-13T09:38:10.061Z,19.20
2018-06-13T09:43:08.010Z,19.10
2018-06-13T09:47:59.699Z,19.20
2018-06-13T09:52:50.589Z,19.10
2018-06-13T09:57:41.488Z,19.10
2018-06-13T10:02:32.429Z,19.20
2018-06-13T10:07:23.341Z,19.30
2018-06-13T10:12:14.257Z,19.40
2018-06-13T10:17:05.161Z,19.50
2018-06-13T10:21:56.119Z,19.60
2018-06-13T10:26:47.021Z,19.60
2018-06-13T10:31:37.929Z,19.60
2018-06-13T10:36:28.856Z,19.60
2018-06-13T10:41:19.756Z,19.50
2018-06-13T10:46:10.686Z,19.40
2018-06-13T10:51:01.585Z,19.40
2018-06-13T10:55:53.238Z,19.10
2018-06-13T11:00:44.154Z,19.10
2018-06-13T11:05:35.073Z,19.00
2018-06-13T11:10:26.001Z,18.90
2018-06-13T11:15:16.921Z,18.80
2018-06-13T11:20:07.850Z,18.80
2018-06-13T11:24:58.757Z,18.70
2018-06-13T11:29:49.671Z,18.70
2018-06-13T11:34:40.607Z,18.70
2018-06-13T11:39:31.521Z,18.80
2018-06-13T11:44:22.433Z,18.90
2018-06-13T11:49:13.347Z,18.90
2018-06-13T11:54:04.241Z,19.00
2018-06-13T11:58:55.897Z,19.00
2018-06-13T12:03:46.818Z,19.00
2018-06-13T12:08:37.768Z,19.00
2018-06-13T12:13:28.689Z,19.00
2018-06-13T12:18:19.593Z,18.90
2018-06-13T12:23:10.506Z,18.90
2018-06-13T12:28:01.412Z,18.80
2018-06-13T12:32:52.334Z,18.70
2018-06-13T12:37:43.263Z,18.70
2018-06-13T12:42:34.160Z,18.70
2018-06-13T12:47:25.060Z,18.70
2018-06-13T12:52:16.700Z,18.70
2018-06-13T12:57:07.624Z,18.70
2018-06-13T13:01:58.537Z,18.70
2018-06-13T13:06:49.447Z,18.70
2018-06-13T13:11:41.089Z,18.70
2018-06-13T13:16:32.736Z,18.70
2018-06-13T13:21:23.641Z,18.60
2018-06-13T13:26:15.321Z,18.60
2018-06-13T13:31:06.221Z,18.60
2018-06-13T13:35:57.120Z,18.70
2018-06-13T13:40:48.021Z,18.70
2018-06-13T13:45:39.731Z,18.70
2018-06-13T13:50:30.599Z,18.70
2018-06-13T13:55:21.497Z,18.80
2018-06-13T14:00:13.221Z,18.80
2018-06-13T14:05:04.126Z,18.70
2018-06-13T14:09:55.069Z,18.70
2018-06-13T14:14:46.786Z,18.80
2018-06-13T14:19:37.701Z,18.80
2018-06-13T14:24:28.609Z,18.80
2018-06-13T14:29:19.517Z,18.80
2018-06-13T14:34:10.426Z,18.80
2018-06-13T14:39:01.336Z,18.80
2018-06-13T14:43:52.295Z,18.70
2018-06-13T14:48:43.202Z,18.70
2018-06-13T14:53:34.117Z,18.70
2018-06-13T14:58:25.020Z,18.70
2018-06-13T15:03:15.928Z,18.60
2018-06-13T15:08:06.894Z,18.60
2018-06-13T15:12:57.785Z,18.60
2018-06-13T15:17:48.697Z,18.50
2018-06-13T15:22:39.593Z,18.50
2018-06-13T15:27:30.552Z,18.50
2018-06-13T15:32:21.389Z,18.40
2018-06-13T15:37:12.282Z,18.40
2018-06-13T15:42:03.193Z,18.40
2018-06-13T15:46:54.090Z,18.40
2018-06-13T15:51:44.993Z,18.40
2018-06-13T15:56:35.879Z,18.30
2018-06-13T16:01:26.768Z,18.30
2018-06-13T16:06:17.668Z,18.30
2018-06-13T16:11:08.570Z,18.30
2018-06-13T16:15:59.541Z,18.20
2018-06-13T16:20:51.186Z,18.10
2018-06-13T16:25:42.090Z,18.10
2018-06-13T16:30:33.058Z,18.10
2018-06-13T16:35:24.758Z,18.00
2018-06-13T16:40:15.668Z,18.00
2018-06-13T16:45:06.571Z,18.00
2018-06-13T16:49:57.490Z,18.00
2018-06-13T16:54:48.412Z,17.90
2018-06-13T16:59:39.352Z,17.90
2018-06-13T17:04:30.267Z,17.90
2018-06-13T17:09:21.164Z,17.80
2018-06-13T17:14:12.076Z,17.80
2018-06-13T17:19:02.984Z,17.70
2018-06-13T17:23:53.880Z,17.70
2018-06-13T17:28:45.505Z,17.60
2018-06-13T17:33:37.193Z,17.50
2018-06-13T17:38:28.806Z,17.50
2018-06-13T17:43:19.708Z,17.50
2018-06-13T17:48:11.357Z,17.40
2018-06-13T17:53:02.239Z,17.40
2018-06-13T17:57:53.140Z,17.40
2018-06-13T18:02:44.058Z,17.30
2018-06-13T18:07:35.079Z,17.30
2018-06-13T18:12:26.018Z,17.30
2018-06-13T18:17:16.945Z,17.20
2018-06-13T18:22:08.672Z,17.20
2018-06-13T18:26:59.537Z,17.20
2018-06-13T18:31:50.432Z,17.10
2018-06-13T18:36:41.413Z,17.10
2018-06-13T18:41:32.316Z,17.10
2018-06-13T18:46:23.219Z,17.00
2018-06-13T18:51:14.125Z,17.00
2018-06-13T18:56:05.026Z,16.90
2018-06-13T19:00:56.005Z,16.90
2018-06-13T19:05:46.913Z,16.80
2018-06-13T19:10:37.816Z,16.80
2018-06-13T19:15:28.712Z,16.80
2018-06-13T19:20:19.608Z,16.80
2018-06-13T19:25:11.251Z,16.70
2018-06-13T19:30:02.160Z,16.60
2018-06-13T19:34:53.804Z,16.60
2018-06-13T19:39:44.700Z,16.60
2018-06-13T19:44:36.354Z,16.50
2018-06-13T19:49:28.013Z,16.50
2018-06-13T19:54:25.164Z,16.50
2018-06-13T19:59:16.066Z,16.50
2018-06-13T20:09:25.520Z,16.40
2018-06-13T20:14:22.472Z,16.40
2018-06-13T20:24:32.098Z,16.30
2018-06-13T20:29:29.883Z,16.30
2018-06-13T20:34:20.787Z,16.30
2018-06-13T20:39:12.433Z,16.30
2018-06-13T20:44:04.081Z,16.20
2018-06-13T20:48:54.980Z,16.20
2018-06-13T20:53:46.649Z,16.20
2018-06-13T20:58:37.566Z,16.10
2018-06-13T21:03:28.469Z,16.20
2018-06-13T21:08:19.381Z,16.10
2018-06-13T21:13:11.065Z,16.10
2018-06-13T21:18:01.973Z,16.00
2018-06-13T21:22:52.896Z,16.00
2018-06-13T21:27:43.784Z,16.00
2018-06-13T21:32:34.676Z,16.00
2018-06-13T21:37:26.313Z,16.00
2018-06-13T21:42:17.981Z,15.90
2018-06-13T21:47:08.881Z,15.90
2018-06-13T21:52:00.529Z,15.90
2018-06-13T21:56:51.426Z,15.90
2018-06-13T22:01:43.075Z,15.80
2018-06-13T22:06:33.974Z,15.80
2018-06-13T22:11:25.618Z,15.80
2018-06-13T22:16:17.277Z,15.70
2018-06-13T22:21:08.181Z,15.70
2018-06-13T22:25:59.083Z,15.70
2018-06-13T22:30:50.725Z,15.70
2018-06-13T22:35:42.352Z,15.70
2018-06-13T22:40:34.004Z,15.60
2018-06-13T22:45:25.646Z,15.70
2018-06-13T22:50:16.541Z,15.60
2018-06-13T22:55:08.189Z,15.60
2018-06-13T22:59:59.824Z,15.60
2018-06-13T23:04:51.495Z,15.60
2018-06-13T23:09:42.402Z,15.50
2018-06-13T23:14:33.307Z,15.50
2018-06-13T23:19:24.209Z,15.50
2018-06-13T23:24:15.866Z,15.50
2018-06-13T23:29:06.765Z,15.50
2018-06-13T23:33:58.399Z,15.40
2018-06-13T23:38:49.308Z,15.40
2018-06-13T23:43:40.950Z,15.30
2018-06-13T23:48:32.584Z,15.30
2018-06-13T23:53:24.210Z,15.30
2018-06-13T23:58:15.105Z,15.30
